VTSH  Songkhla Airport

Add Bookmark

Thailand

Status IATA
Operational SGZ
Latitude Longitude
7° 11' 11" N 100° 36' 28" E
7.186560 100.608002
Local (DST + 7) UTC (GMT + 7)
Feb 28, 2015 05:37 Feb 27, 2015 22:37
Sunrise-Sunset Local UTC
Begin Civil Twilight 06:08 23:08
Sunrise 06:29 23:29
Sunset 06:30 11:30
End Civil Twilight 06:51 11:51

Current Weather

METAR Observed VFR
VTSH 271000Z 07006KT 9999 FEW020 SCT300 29/22 Q1008 A2979 Fri, Feb 27, 2015 @ 10:00 UTC
(12 Hours, 37 Minutes ago)
Visual Flight Rules
Wind Visibility Clouds Conditions
070° at 6 knots (11 kph) 10 km or more
  • Few at 2,000' AGL
  • Scattered at 30,000' AGL
  • No significant weather
Temperatures Readings Precipitation
Current Temp 29°C (84°F)
Dewpoint 22°C (72°F)
Heat Index 32°C (89°F)
Humidity 66%
Altimeter 29.76"Hg
Sea Level Pressure 1008mb
Field Elevation 16.4'
None Recorded

Additional weather within a 92.6km radius of VTSH

Map ICAO Location
VTSS 36.9km S (220°)

24 Hour Weather History

Loading
-

24 Hour Weather Graphs

Loading
-

CheckWX.com is intended as a tool to help pilots better visualize weather data. It is not intended as a substitute for an official weather briefing obtained from a Flight Service Station. CheckWX.com does not meet the FAA requirements for an official pre-flight weather briefing. Therefore, it's important that pilots still call and obtain an official FSS pre-flight weather briefing.